Time;durP1;ratioP1;P1;durP2;ratioP2;P2;SDS_P1;SDS_P2;PMS_P1;PMS_P2;Temp;Humidity;BMP_temperature;BMP_pressure;BME280_temperature;BME280_humidity;BME280_pressure;Samples;Min_cycle;Max_cycle;Signal;HPM_P1;HPM_P2
2023/09/17 00:00:25;;;;;;;7.28;5.05;;;;;;;;;;1050208;28;20047;-66
2023/09/17 00:01:16;;;;;;;8.48;5.60;;;;;;;;;;1052023;28;20065;-65
2023/09/17 00:01:56;;;;;;;7.05;4.88;;;;;;;;;;1052826;28;20078;-64
2023/09/17 00:02:27;;;;;;;8.07;5.68;;;;;;;;;;1053082;28;20832;-64
2023/09/17 00:02:58;;;;;;;6.65;4.93;;;;;;;;;;1053223;28;22546;-64
2023/09/17 00:03:29;;;;;;;8.30;5.72;;;;;;;;;;1050609;28;20039;-64
2023/09/17 00:04:00;;;;;;;11.77;6.22;;;;;;;;;;1054436;28;20051;-64
2023/09/17 00:04:31;;;;;;;8.10;5.82;;;;;;;;;;1051939;28;20445;-65
2023/09/17 00:05:03;;;;;;;8.40;5.15;;;;;;;;;;1051753;28;20669;-67
2023/09/17 00:05:34;;;;;;;8.77;5.50;;;;;;;;;;1052271;28;20120;-66
2023/09/17 00:06:06;;;;;;;8.80;5.70;;;;;;;;;;1052846;28;20043;-65
2023/09/17 00:06:36;;;;;;;8.15;5.32;;;;;;;;;;1051623;28;20052;-65
2023/09/17 00:07:07;;;;;;;8.38;5.18;;;;;;;;;;1053319;28;20048;-66
2023/09/17 00:07:37;;;;;;;8.90;5.70;;;;;;;;;;1049657;28;20051;-66
2023/09/17 00:08:08;;;;;;;9.10;6.05;;;;;;;;;;1052592;28;20048;-65
2023/09/17 00:08:38;;;;;;;7.75;5.60;;;;;;;;;;1050512;28;20065;-66
2023/09/17 00:09:09;;;;;;;8.57;5.07;;;;;;;;;;1050985;28;20453;-66
2023/09/17 00:09:39;;;;;;;7.10;5.50;;;;;;;;;;1052467;28;20048;-66
2023/09/17 00:10:11;;;;;;;8.80;5.38;;;;;;;;;;1054153;28;20116;-65
2023/09/17 00:10:43;;;;;;;9.75;5.63;;;;;;;;;;1050125;28;20065;-65
2023/09/17 00:11:14;;;;;;;7.75;5.53;;;;;;;;;;1052544;28;20426;-63
2023/09/17 00:11:45;;;;;;;10.30;6.07;;;;;;;;;;1052703;28;20410;-65
2023/09/17 00:12:15;;;;;;;7.60;5.55;;;;;;;;;;1052937;28;20471;-65
2023/09/17 00:12:46;;;;;;;7.53;5.60;;;;;;;;;;1054384;28;20585;-66
2023/09/17 00:13:16;;;;;;;9.55;5.70;;;;;;;;;;1051452;28;20071;-64
2023/09/17 00:13:47;;;;;;;9.50;6.18;;;;;;;;;;1054904;28;20043;-63
2023/09/17 00:14:18;;;;;;;8.35;5.90;;;;;;;;;;1053374;27;20415;-63
2023/09/17 00:14:48;;;;;;;8.40;5.47;;;;;;;;;;1053513;28;20185;-65
2023/09/17 00:15:20;;;;;;;9.20;6.10;;;;;;;;;;1049855;28;20055;-66
2023/09/17 00:15:52;;;;;;;6.85;5.20;;;;;;;;;;1053249;28;20075;-66
2023/09/17 00:16:24;;;;;;;9.77;6.00;;;;;;;;;;1054030;28;20055;-65
2023/09/17 00:16:55;;;;;;;8.90;6.25;;;;;;;;;;1053436;28;20168;-66
2023/09/17 00:17:25;;;;;;;8.93;5.63;;;;;;;;;;1050316;28;20073;-65
2023/09/17 00:17:56;;;;;;;10.80;6.28;;;;;;;;;;1051811;28;20065;-62
2023/09/17 00:18:26;;;;;;;9.68;5.97;;;;;;;;;;1053739;28;20056;-66
2023/09/17 00:18:57;;;;;;;8.10;5.68;;;;;;;;;;1053258;28;20413;-65
2023/09/17 00:19:28;;;;;;;7.03;5.80;;;;;;;;;;1051392;28;23453;-63
2023/09/17 00:19:58;;;;;;;9.23;5.95;;;;;;;;;;1053885;28;20806;-65
2023/09/17 00:20:29;;;;;;;9.77;5.63;;;;;;;;;;1050889;28;20130;-66
2023/09/17 00:21:00;;;;;;;8.38;5.75;;;;;;;;;;1053426;28;20047;-66
2023/09/17 00:21:30;;;;;;;8.25;6.00;;;;;;;;;;1050838;28;21690;-65
2023/09/17 00:22:02;;;;;;;8.80;6.25;;;;;;;;;;1051984;28;20438;-65
2023/09/17 00:22:33;;;;;;;9.52;5.80;;;;;;;;;;1051874;28;20475;-66
2023/09/17 00:23:04;;;;;;;8.90;6.03;;;;;;;;;;1050719;28;20115;-64
2023/09/17 00:23:34;;;;;;;8.93;6.15;;;;;;;;;;1051147;28;20073;-64
2023/09/17 00:24:05;;;;;;;9.80;5.93;;;;;;;;;;1053498;27;20050;-65
2023/09/17 00:24:36;;;;;;;7.18;5.88;;;;;;;;;;1053393;28;20047;-66
2023/09/17 00:25:07;;;;;;;8.75;6.22;;;;;;;;;;1051940;28;20059;-66
2023/09/17 00:25:37;;;;;;;7.68;5.95;;;;;;;;;;1051159;28;20131;-66
2023/09/17 00:26:08;;;;;;;11.63;6.07;;;;;;;;;;1051530;28;20064;-67
2023/09/17 00:26:39;;;;;;;8.23;5.40;;;;;;;;;;1051633;28;20052;-66
2023/09/17 00:27:09;;;;;;;8.35;5.57;;;;;;;;;;1052829;28;20086;-65
2023/09/17 00:27:40;;;;;;;10.93;5.78;;;;;;;;;;1052059;28;20058;-65
2023/09/17 00:28:10;;;;;;;9.88;6.75;;;;;;;;;;1052817;28;20048;-67
2023/09/17 00:28:41;;;;;;;8.85;5.85;;;;;;;;;;1050037;28;20051;-66
2023/09/17 00:29:12;;;;;;;10.20;5.55;;;;;;;;;;1051906;28;20045;-66
2023/09/17 00:29:42;;;;;;;8.20;5.35;;;;;;;;;;1052697;28;20561;-66
2023/09/17 00:30:13;;;;;;;8.05;5.40;;;;;;;;;;1053451;27;20069;-65
2023/09/17 00:30:44;;;;;;;7.80;6.10;;;;;;;;;;1052758;28;20106;-65
2023/09/17 00:31:15;;;;;;;8.55;5.60;;;;;;;;;;1051070;28;20105;-66
2023/09/17 00:31:45;;;;;;;7.95;5.97;;;;;;;;;;1050662;28;20055;-65
2023/09/17 00:32:16;;;;;;;9.65;5.97;;;;;;;;;;1051650;28;20062;-66
2023/09/17 00:32:46;;;;;;;8.32;6.55;;;;;;;;;;1054304;28;20543;-67
2023/09/17 00:33:17;;;;;;;9.68;6.00;;;;;;;;;;1052383;28;20548;-64
2023/09/17 00:33:47;;;;;;;7.43;5.63;;;;;;;;;;1052421;28;20044;-67
2023/09/17 00:34:18;;;;;;;13.18;6.38;;;;;;;;;;1053616;28;20055;-64
2023/09/17 00:34:48;;;;;;;10.52;6.47;;;;;;;;;;1051686;28;22052;-65
2023/09/17 00:35:19;;;;;;;10.80;5.80;;;;;;;;;;1051236;28;20450;-67
2023/09/17 00:35:49;;;;;;;8.63;5.97;;;;;;;;;;1050182;28;20051;-66
2023/09/17 00:36:20;;;;;;;9.10;6.57;;;;;;;;;;1052669;27;20446;-65
2023/09/17 00:36:51;;;;;;;9.20;6.07;;;;;;;;;;1054352;28;20970;-66
2023/09/17 00:37:22;;;;;;;8.77;6.10;;;;;;;;;;1054515;28;20047;-64
2023/09/17 00:37:53;;;;;;;10.20;6.10;;;;;;;;;;1053632;28;20051;-65
2023/09/17 00:38:24;;;;;;;9.25;6.13;;;;;;;;;;1051831;28;20035;-65
2023/09/17 00:38:54;;;;;;;8.27;5.80;;;;;;;;;;1051695;28;20051;-65
2023/09/17 00:39:25;;;;;;;8.23;5.93;;;;;;;;;;1050464;28;20047;-65
2023/09/17 00:39:55;;;;;;;7.35;5.47;;;;;;;;;;1051768;28;20051;-65
2023/09/17 00:40:31;;;;;;;8.40;5.18;;;;;;;;;;1050511;28;20063;-65
2023/09/17 00:41:02;;;;;;;8.63;5.47;;;;;;;;;;1050308;28;20074;-66
2023/09/17 00:41:32;;;;;;;8.55;5.43;;;;;;;;;;1050790;28;20407;-65
2023/09/17 00:42:03;;;;;;;8.48;6.07;;;;;;;;;;1050395;28;20052;-66
2023/09/17 00:42:33;;;;;;;9.88;5.85;;;;;;;;;;1051418;28;20229;-66
2023/09/17 00:43:04;;;;;;;8.23;6.20;;;;;;;;;;1052296;28;20074;-65
2023/09/17 00:43:36;;;;;;;8.60;6.05;;;;;;;;;;1052330;28;20065;-65
2023/09/17 00:44:06;;;;;;;8.18;6.13;;;;;;;;;;1052129;28;20057;-66
2023/09/17 00:44:37;;;;;;;8.57;5.82;;;;;;;;;;1049859;28;20134;-66
2023/09/17 00:45:09;;;;;;;9.13;6.00;;;;;;;;;;1049752;28;20043;-66
2023/09/17 00:45:42;;;;;;;10.38;6.28;;;;;;;;;;1051721;28;20043;-66
2023/09/17 00:46:14;;;;;;;9.40;5.78;;;;;;;;;;1053323;28;20064;-65
2023/09/17 00:46:45;;;;;;;9.18;5.95;;;;;;;;;;1050910;28;20043;-64
2023/09/17 00:47:15;;;;;;;9.68;5.55;;;;;;;;;;1051769;27;20051;-65
2023/09/17 00:47:46;;;;;;;7.30;5.30;;;;;;;;;;1050299;28;20055;-65
2023/09/17 00:48:17;;;;;;;9.77;6.10;;;;;;;;;;1051883;28;20439;-66
2023/09/17 00:48:47;;;;;;;7.35;5.82;;;;;;;;;;1050631;28;20055;-65
2023/09/17 00:49:18;;;;;;;9.88;6.28;;;;;;;;;;1050630;28;20052;-65
2023/09/17 00:49:49;;;;;;;10.35;6.10;;;;;;;;;;1050091;28;20121;-66
2023/09/17 00:50:20;;;;;;;7.25;6.07;;;;;;;;;;1050999;28;20108;-65
2023/09/17 00:50:51;;;;;;;8.32;5.97;;;;;;;;;;1052952;28;20044;-66
2023/09/17 00:51:21;;;;;;;10.00;5.93;;;;;;;;;;1050480;28;20047;-66
2023/09/17 00:51:52;;;;;;;10.35;6.00;;;;;;;;;;1048903;28;20043;-65
2023/09/17 00:52:23;;;;;;;11.27;6.03;;;;;;;;;;1050504;28;20089;-65
2023/09/17 00:52:54;;;;;;;8.10;6.22;;;;;;;;;;1052198;28;20048;-64
2023/09/17 00:53:26;;;;;;;9.00;6.05;;;;;;;;;;1050140;28;20043;-66
2023/09/17 00:53:59;;;;;;;8.68;6.18;;;;;;;;;;1051485;28;20075;-65
2023/09/17 00:54:30;;;;;;;8.65;6.03;;;;;;;;;;1049522;28;20052;-66
2023/09/17 00:55:01;;;;;;;10.70;6.78;;;;;;;;;;1051613;28;20384;-65
2023/09/17 00:55:32;;;;;;;13.20;7.03;;;;;;;;;;1049935;28;20518;-66
2023/09/17 00:56:04;;;;;;;8.23;6.22;;;;;;;;;;1053339;28;20093;-66
2023/09/17 00:56:36;;;;;;;11.07;6.43;;;;;;;;;;1050444;28;20092;-65
2023/09/17 00:57:06;;;;;;;10.93;6.40;;;;;;;;;;1051258;28;20054;-66
2023/09/17 00:57:40;;;;;;;9.07;6.22;;;;;;;;;;1053201;28;20054;-65
2023/09/17 00:58:12;;;;;;;7.85;5.80;;;;;;;;;;1053842;28;20411;-65
2023/09/17 00:58:44;;;;;;;8.50;6.63;;;;;;;;;;1050656;28;20075;-66
2023/09/17 00:59:14;;;;;;;8.63;6.55;;;;;;;;;;1050771;28;20055;-66
2023/09/17 00:59:47;;;;;;;12.48;6.15;;;;;;;;;;1050484;28;20056;-66
2023/09/17 01:00:21;;;;;;;9.35;5.90;;;;;;;;;;1052022;28;20080;-66
2023/09/17 01:00:52;;;;;;;9.82;6.57;;;;;;;;;;1051094;28;20442;-66
2023/09/17 01:01:22;;;;;;;8.63;6.40;;;;;;;;;;1051701;28;20395;-66
2023/09/17 01:01:53;;;;;;;8.13;6.18;;;;;;;;;;1051637;28;20393;-67
2023/09/17 01:02:25;;;;;;;8.93;5.93;;;;;;;;;;1051384;28;20044;-65
2023/09/17 01:02:55;;;;;;;8.93;6.25;;;;;;;;;;1051416;28;20086;-66
2023/09/17 01:03:27;;;;;;;12.75;6.43;;;;;;;;;;1051986;28;20058;-65
2023/09/17 01:03:59;;;;;;;8.88;6.35;;;;;;;;;;1050396;28;20055;-65
2023/09/17 01:04:31;;;;;;;7.85;5.75;;;;;;;;;;1050703;28;20056;-64
2023/09/17 01:05:04;;;;;;;7.68;5.97;;;;;;;;;;1050037;28;20051;-65
2023/09/17 01:05:41;;;;;;;9.65;6.10;;;;;;;;;;1051951;28;20044;-66
2023/09/17 01:06:12;;;;;;;7.63;6.10;;;;;;;;;;1050441;28;20052;-66
2023/09/17 01:06:43;;;;;;;9.15;6.22;;;;;;;;;;1051959;28;20043;-66
2023/09/17 01:07:14;;;;;;;11.07;6.00;;;;;;;;;;1052063;28;20044;-65
2023/09/17 01:07:45;;;;;;;9.23;6.28;;;;;;;;;;1051012;28;20269;-66
2023/09/17 01:08:17;;;;;;;7.53;5.97;;;;;;;;;;1050394;28;20277;-65
2023/09/17 01:08:48;;;;;;;9.52;6.20;;;;;;;;;;1054170;28;20054;-66
2023/09/17 01:09:20;;;;;;;8.15;6.47;;;;;;;;;;1051358;28;20100;-65
2023/09/17 01:09:51;;;;;;;10.43;6.00;;;;;;;;;;1052897;28;20513;-66
2023/09/17 01:10:22;;;;;;;10.48;6.22;;;;;;;;;;1050353;28;20055;-65
2023/09/17 01:10:57;;;;;;;8.48;6.25;;;;;;;;;;1052787;28;20087;-64
2023/09/17 01:11:28;;;;;;;9.20;6.15;;;;;;;;;;1051923;28;20047;-66
2023/09/17 01:11:59;;;;;;;9.40;6.45;;;;;;;;;;1053427;28;20184;-66
2023/09/17 01:12:31;;;;;;;10.60;6.18;;;;;;;;;;1049854;28;20480;-66
2023/09/17 01:13:04;;;;;;;10.07;6.78;;;;;;;;;;1051386;28;20040;-65
2023/09/17 01:13:40;;;;;;;11.88;6.70;;;;;;;;;;1053141;28;20407;-65
2023/09/17 01:14:14;;;;;;;7.28;6.15;;;;;;;;;;1053108;28;20407;-65
2023/09/17 01:14:46;;;;;;;8.13;5.97;;;;;;;;;;1049658;28;20428;-65
2023/09/17 01:15:17;;;;;;;10.38;6.72;;;;;;;;;;1051989;28;20059;-65
2023/09/17 01:15:47;;;;;;;9.07;6.65;;;;;;;;;;1051416;28;20051;-66
2023/09/17 01:16:18;;;;;;;10.40;6.60;;;;;;;;;;1051723;28;20070;-66
2023/09/17 01:16:49;;;;;;;10.05;6.43;;;;;;;;;;1049631;28;20935;-65
2023/09/17 01:17:20;;;;;;;10.38;6.70;;;;;;;;;;1053067;28;20043;-65
2023/09/17 01:17:53;;;;;;;10.38;6.38;;;;;;;;;;1051331;28;20100;-66
2023/09/17 01:18:27;;;;;;;7.63;6.22;;;;;;;;;;1053734;28;20090;-65
2023/09/17 01:18:59;;;;;;;7.93;5.68;;;;;;;;;;1054003;28;20467;-65
2023/09/17 01:19:32;;;;;;;11.30;6.70;;;;;;;;;;1052415;28;20040;-66
2023/09/17 01:20:24;;;;;;;7.60;6.60;;;;;;;;;;1051644;28;20733;-64
2023/09/17 01:21:01;;;;;;;7.38;5.82;;;;;;;;;;1048106;28;20506;-64
2023/09/17 01:21:37;;;;;;;10.00;6.75;;;;;;;;;;1048529;28;20109;-64
2023/09/17 01:22:29;;;;;;;8.10;6.35;;;;;;;;;;1045984;28;20048;-65
2023/09/17 01:23:06;;;;;;;9.30;6.25;;;;;;;;;;1047781;28;20055;-65
2023/09/17 01:23:50;;;;;;;7.65;6.10;;;;;;;;;;1048399;28;20446;-66
2023/09/17 01:24:23;;;;;;;8.73;6.43;;;;;;;;;;1047193;28;20051;-65
2023/09/17 01:25:06;;;;;;;8.07;6.03;;;;;;;;;;1046807;28;20404;-65
2023/09/17 01:25:55;;;;;;;8.30;6.07;;;;;;;;;;1047365;28;20069;-65
2023/09/17 01:26:30;;;;;;;9.10;6.40;;;;;;;;;;1045334;28;20036;-65
2023/09/17 01:27:05;;;;;;;9.70;6.32;;;;;;;;;;1047648;28;20163;-65
2023/09/17 01:27:39;;;;;;;9.85;6.25;;;;;;;;;;1047133;28;20130;-65
2023/09/17 01:28:12;;;;;;;9.38;6.65;;;;;;;;;;1046918;28;20044;-65
2023/09/17 01:28:43;;;;;;;8.80;6.47;;;;;;;;;;1049666;28;20051;-64
2023/09/17 01:29:13;;;;;;;11.80;6.88;;;;;;;;;;1048799;28;20056;-68
2023/09/17 01:29:46;;;;;;;11.38;7.18;;;;;;;;;;1048497;28;20044;-65
2023/09/17 01:30:17;;;;;;;9.82;6.65;;;;;;;;;;1047068;28;20035;-66
2023/09/17 01:30:48;;;;;;;8.25;6.25;;;;;;;;;;1049446;28;20068;-65
2023/09/17 01:31:19;;;;;;;9.20;6.50;;;;;;;;;;1048386;28;20105;-65
2023/09/17 01:31:49;;;;;;;9.98;7.18;;;;;;;;;;1048096;28;20085;-66
2023/09/17 01:32:20;;;;;;;9.77;6.30;;;;;;;;;;1046426;28;20053;-64
2023/09/17 01:32:51;;;;;;;8.77;6.32;;;;;;;;;;1048852;28;20067;-66
2023/09/17 01:33:21;;;;;;;9.98;6.45;;;;;;;;;;1046146;28;20056;-66
2023/09/17 01:33:53;;;;;;;7.85;5.97;;;;;;;;;;1049805;28;20055;-65
2023/09/17 01:34:23;;;;;;;9.05;6.43;;;;;;;;;;1045134;28;23452;-65
2023/09/17 01:34:54;;;;;;;9.70;6.80;;;;;;;;;;1050715;28;20484;-65
2023/09/17 01:35:25;;;;;;;8.23;6.40;;;;;;;;;;1047792;28;20048;-65
2023/09/17 01:36:24;;;;;;;10.02;6.47;;;;;;;;;;1049394;28;20051;-65
2023/09/17 01:36:59;;;;;;;8.88;6.55;;;;;;;;;;1049757;28;20055;-66
2023/09/17 01:37:34;;;;;;;8.38;5.72;;;;;;;;;;1047434;28;20056;-66
2023/09/17 01:38:06;;;;;;;8.13;6.10;;;;;;;;;;1050848;28;20472;-65
2023/09/17 01:38:43;;;;;;;8.50;6.43;;;;;;;;;;1048424;28;20052;-65
2023/09/17 01:39:22;;;;;;;9.38;6.28;;;;;;;;;;1049172;28;20074;-65
2023/09/17 01:39:56;;;;;;;9.73;6.05;;;;;;;;;;1047679;28;20052;-64
2023/09/17 01:40:28;;;;;;;9.50;6.65;;;;;;;;;;1047024;28;20055;-65
2023/09/17 01:41:01;;;;;;;10.02;6.57;;;;;;;;;;1047017;28;20060;-65
2023/09/17 01:41:36;;;;;;;11.07;6.63;;;;;;;;;;1048088;28;20044;-65
2023/09/17 01:42:08;;;;;;;11.18;6.15;;;;;;;;;;1046274;28;20084;-65
2023/09/17 01:42:40;;;;;;;9.20;6.50;;;;;;;;;;1051125;28;20419;-66
2023/09/17 01:43:11;;;;;;;10.13;7.05;;;;;;;;;;1050538;28;20063;-67
2023/09/17 01:43:43;;;;;;;9.07;6.35;;;;;;;;;;1052848;28;20048;-66
2023/09/17 01:44:15;;;;;;;9.50;6.68;;;;;;;;;;1049910;28;20537;-66
2023/09/17 01:44:47;;;;;;;8.68;6.30;;;;;;;;;;1052791;28;20043;-65
2023/09/17 01:45:18;;;;;;;13.20;6.82;;;;;;;;;;1051905;28;20047;-65
2023/09/17 01:45:50;;;;;;;10.45;7.15;;;;;;;;;;1054859;28;20051;-66
2023/09/17 01:46:22;;;;;;;9.60;6.80;;;;;;;;;;1050959;28;20075;-66
2023/09/17 01:46:53;;;;;;;9.38;6.80;;;;;;;;;;1052310;28;20050;-65
2023/09/17 01:47:26;;;;;;;9.05;6.90;;;;;;;;;;1051536;28;20055;-65
2023/09/17 01:47:58;;;;;;;9.70;6.88;;;;;;;;;;1052304;28;20053;-65
2023/09/17 01:48:29;;;;;;;11.90;7.10;;;;;;;;;;1051813;28;20066;-64
2023/09/17 01:49:00;;;;;;;16.33;7.05;;;;;;;;;;1053203;28;20137;-65
2023/09/17 01:49:32;;;;;;;8.85;6.53;;;;;;;;;;1050342;28;20047;-64
2023/09/17 01:50:04;;;;;;;9.38;6.97;;;;;;;;;;1052155;28;20097;-66
2023/09/17 01:50:36;;;;;;;11.05;7.38;;;;;;;;;;1052504;28;20463;-65
2023/09/17 01:51:08;;;;;;;10.45;6.10;;;;;;;;;;1054669;28;20054;-65
2023/09/17 01:51:38;;;;;;;11.32;7.00;;;;;;;;;;1051796;28;20055;-65
2023/09/17 01:52:10;;;;;;;11.38;7.22;;;;;;;;;;1050319;28;20052;-66
2023/09/17 01:52:44;;;;;;;11.98;6.95;;;;;;;;;;1053016;28;20050;-65
2023/09/17 01:53:16;;;;;;;10.10;6.80;;;;;;;;;;1053435;28;20043;-65
2023/09/17 01:53:47;;;;;;;12.30;6.57;;;;;;;;;;1052138;28;20047;-65
2023/09/17 01:54:18;;;;;;;9.63;6.75;;;;;;;;;;1049973;28;20097;-65
2023/09/17 01:54:50;;;;;;;11.02;6.85;;;;;;;;;;1051232;28;20063;-66
2023/09/17 01:55:22;;;;;;;9.10;6.38;;;;;;;;;;1050166;28;20072;-65
2023/09/17 01:55:56;;;;;;;9.95;6.70;;;;;;;;;;1051035;28;20105;-66
2023/09/17 01:56:26;;;;;;;8.68;6.93;;;;;;;;;;1051823;28;20093;-67
2023/09/17 01:56:57;;;;;;;11.30;7.40;;;;;;;;;;1050335;28;20098;-66
2023/09/17 01:57:28;;;;;;;9.60;6.78;;;;;;;;;;1054482;28;20044;-65
2023/09/17 01:57:58;;;;;;;8.02;6.47;;;;;;;;;;1051972;28;20040;-65
2023/09/17 01:58:29;;;;;;;10.48;6.47;;;;;;;;;;1051753;28;20051;-66
2023/09/17 01:58:59;;;;;;;10.85;7.43;;;;;;;;;;1051929;28;20075;-65
2023/09/17 01:59:30;;;;;;;11.43;7.40;;;;;;;;;;1053259;28;20043;-66
2023/09/17 02:00:14;;;;;;;17.23;7.10;;;;;;;;;;1053539;28;20050;-66
2023/09/17 02:00:44;;;;;;;11.35;7.15;;;;;;;;;;1050011;28;20051;-66
2023/09/17 02:01:15;;;;;;;10.23;6.78;;;;;;;;;;1050967;28;20048;-66
2023/09/17 02:01:46;;;;;;;9.02;6.47;;;;;;;;;;1050358;28;20048;-65
2023/09/17 02:02:16;;;;;;;11.23;6.90;;;;;;;;;;1053964;28;20052;-65
2023/09/17 02:02:48;;;;;;;13.13;6.93;;;;;;;;;;1053136;28;20111;-65
2023/09/17 02:03:19;;;;;;;12.77;7.43;;;;;;;;;;1050091;28;20472;-66
2023/09/17 02:03:50;;;;;;;10.18;6.75;;;;;;;;;;1050064;28;20055;-66
2023/09/17 02:04:21;;;;;;;10.15;6.93;;;;;;;;;;1050585;28;20403;-65
2023/09/17 02:04:51;;;;;;;9.75;7.10;;;;;;;;;;1052779;28;20581;-65
2023/09/17 02:05:24;;;;;;;9.23;6.65;;;;;;;;;;1052060;28;20749;-67
2023/09/17 02:05:55;;;;;;;9.05;6.43;;;;;;;;;;1054472;28;20055;-66
2023/09/17 02:06:26;;;;;;;11.15;7.03;;;;;;;;;;1053335;28;20047;-66
2023/09/17 02:06:56;;;;;;;11.25;7.18;;;;;;;;;;1052466;28;20047;-65
2023/09/17 02:07:27;;;;;;;13.93;6.88;;;;;;;;;;1052428;28;20056;-64
2023/09/17 02:07:57;;;;;;;11.88;7.15;;;;;;;;;;1051758;28;20057;-65
2023/09/17 02:08:28;;;;;;;13.40;7.32;;;;;;;;;;1049472;28;20059;-66
2023/09/17 02:08:58;;;;;;;10.68;6.78;;;;;;;;;;1052188;28;20127;-65
2023/09/17 02:09:29;;;;;;;11.88;6.78;;;;;;;;;;1053848;28;20056;-67
2023/09/17 02:10:00;;;;;;;11.00;6.90;;;;;;;;;;1052951;28;20177;-65
2023/09/17 02:10:30;;;;;;;12.00;7.13;;;;;;;;;;1052512;28;20407;-66
2023/09/17 02:11:04;;;;;;;11.70;7.13;;;;;;;;;;1050656;28;20435;-66
2023/09/17 02:11:35;;;;;;;11.60;6.90;;;;;;;;;;1048779;28;20040;-65
2023/09/17 02:12:06;;;;;;;9.55;7.00;;;;;;;;;;1052312;28;20055;-65
2023/09/17 02:12:36;;;;;;;12.45;7.35;;;;;;;;;;1050278;28;20063;-65
2023/09/17 02:13:07;;;;;;;11.07;7.30;;;;;;;;;;1050745;28;20048;-66
2023/09/17 02:13:37;;;;;;;11.40;6.82;;;;;;;;;;1050563;28;20102;-65
2023/09/17 02:14:08;;;;;;;9.68;7.07;;;;;;;;;;1053048;28;20098;-66
2023/09/17 02:14:39;;;;;;;9.75;6.90;;;;;;;;;;1049027;28;21776;-65
2023/09/17 02:15:10;;;;;;;9.73;6.50;;;;;;;;;;1050968;28;20082;-66
2023/09/17 02:15:40;;;;;;;8.95;6.85;;;;;;;;;;1053508;28;20051;-65
2023/09/17 02:16:11;;;;;;;13.02;6.97;;;;;;;;;;1052361;28;20048;-64
2023/09/17 02:16:42;;;;;;;11.65;7.55;;;;;;;;;;1049933;28;20047;-64
2023/09/17 02:17:14;;;;;;;12.40;7.20;;;;;;;;;;1050869;28;20048;-65
2023/09/17 02:17:45;;;;;;;15.68;8.05;;;;;;;;;;1051696;28;20039;-65
2023/09/17 02:18:16;;;;;;;9.70;6.95;;;;;;;;;;1049616;28;20411;-66
2023/09/17 02:18:46;;;;;;;10.52;7.60;;;;;;;;;;1054415;28;20052;-65
2023/09/17 02:19:17;;;;;;;9.57;7.00;;;;;;;;;;1053185;28;20052;-67
2023/09/17 02:19:47;;;;;;;9.65;7.20;;;;;;;;;;1052509;28;20059;-66
2023/09/17 02:20:18;;;;;;;10.52;7.43;;;;;;;;;;1051121;28;20071;-66
2023/09/17 02:20:49;;;;;;;11.52;7.25;;;;;;;;;;1052629;28;20757;-65
2023/09/17 02:21:20;;;;;;;10.23;7.25;;;;;;;;;;1050105;28;20058;-65
2023/09/17 02:21:52;;;;;;;10.75;7.22;;;;;;;;;;1051835;28;20199;-65
2023/09/17 02:22:23;;;;;;;14.05;7.40;;;;;;;;;;1050682;28;20077;-66
2023/09/17 02:22:53;;;;;;;11.50;7.38;;;;;;;;;;1052631;28;20081;-65
2023/09/17 02:23:25;;;;;;;12.60;7.00;;;;;;;;;;1050303;28;20052;-65
2023/09/17 02:23:55;;;;;;;11.20;7.43;;;;;;;;;;1053538;28;20568;-65
2023/09/17 02:24:26;;;;;;;9.93;7.28;;;;;;;;;;1048932;28;20829;-66
2023/09/17 02:24:56;;;;;;;10.25;7.38;;;;;;;;;;1052171;28;20046;-66
2023/09/17 02:25:27;;;;;;;10.52;7.15;;;;;;;;;;1049733;28;20086;-66
2023/09/17 02:25:57;;;;;;;10.60;7.75;;;;;;;;;;1050780;28;20055;-65
2023/09/17 02:26:28;;;;;;;10.73;7.22;;;;;;;;;;1050823;28;20495;-65
2023/09/17 02:26:59;;;;;;;14.13;7.45;;;;;;;;;;1052062;28;20040;-65
2023/09/17 02:27:29;;;;;;;10.25;6.82;;;;;;;;;;1051122;28;20139;-65
2023/09/17 02:28:02;;;;;;;11.73;7.30;;;;;;;;;;1050946;28;20071;-66
2023/09/17 02:28:32;;;;;;;10.95;7.28;;;;;;;;;;1050143;28;20067;-66
2023/09/17 02:29:04;;;;;;;10.27;7.30;;;;;;;;;;1051613;28;20079;-65
2023/09/17 02:29:34;;;;;;;11.55;7.80;;;;;;;;;;1052177;28;20048;-66
2023/09/17 02:30:05;;;;;;;10.48;7.45;;;;;;;;;;1051159;28;21658;-65
2023/09/17 02:30:36;;;;;;;14.20;7.28;;;;;;;;;;1052701;28;20443;-65
2023/09/17 02:31:06;;;;;;;12.05;7.53;;;;;;;;;;1052367;28;21065;-66
2023/09/17 02:31:37;;;;;;;11.07;6.97;;;;;;;;;;1050303;28;20047;-66
2023/09/17 02:32:09;;;;;;;12.30;7.65;;;;;;;;;;1051082;28;20056;-65
2023/09/17 02:32:40;;;;;;;11.15;7.53;;;;;;;;;;1052598;28;20059;-64
2023/09/17 02:33:11;;;;;;;12.40;7.50;;;;;;;;;;1052054;28;20058;-66
2023/09/17 02:33:41;;;;;;;9.55;6.63;;;;;;;;;;1050500;28;20044;-65
2023/09/17 02:34:12;;;;;;;10.70;6.40;;;;;;;;;;1049921;28;20056;-66
2023/09/17 02:34:43;;;;;;;11.27;8.23;;;;;;;;;;1052292;28;20062;-65
2023/09/17 02:35:13;;;;;;;10.45;7.70;;;;;;;;;;1054054;28;20055;-64
2023/09/17 02:35:44;;;;;;;11.35;7.55;;;;;;;;;;1054151;28;20056;-66
2023/09/17 02:36:14;;;;;;;12.25;8.00;;;;;;;;;;1052715;28;20502;-67
2023/09/17 02:36:45;;;;;;;12.07;7.72;;;;;;;;;;1050696;28;20048;-65
2023/09/17 02:37:15;;;;;;;11.45;7.15;;;;;;;;;;1051839;28;20142;-66
2023/09/17 02:37:46;;;;;;;9.73;7.40;;;;;;;;;;1053224;28;20533;-65
2023/09/17 02:38:17;;;;;;;9.65;7.22;;;;;;;;;;1049664;28;20147;-66
2023/09/17 02:38:47;;;;;;;10.63;7.13;;;;;;;;;;1051880;28;20451;-65
2023/09/17 02:39:18;;;;;;;11.88;7.63;;;;;;;;;;1053297;28;20614;-65
2023/09/17 02:39:49;;;;;;;11.18;7.22;;;;;;;;;;1050913;28;20037;-65
2023/09/17 02:40:19;;;;;;;12.98;7.43;;;;;;;;;;1051766;28;20353;-66
2023/09/17 02:40:50;;;;;;;12.93;8.07;;;;;;;;;;1053981;28;20185;-65
2023/09/17 02:41:20;;;;;;;11.50;7.88;;;;;;;;;;1053049;28;20062;-66
2023/09/17 02:41:51;;;;;;;11.07;7.35;;;;;;;;;;1051310;28;20105;-65
2023/09/17 02:42:23;;;;;;;10.82;6.95;;;;;;;;;;1051421;28;20058;-66
2023/09/17 02:42:53;;;;;;;9.98;7.10;;;;;;;;;;1052351;28;20047;-66
2023/09/17 02:43:24;;;;;;;13.45;8.00;;;;;;;;;;1050161;28;20043;-66
2023/09/17 02:43:55;;;;;;;9.77;6.80;;;;;;;;;;1050132;28;20048;-66
2023/09/17 02:44:26;;;;;;;11.02;7.05;;;;;;;;;;1050166;28;20047;-65
2023/09/17 02:44:56;;;;;;;10.75;7.85;;;;;;;;;;1050009;28;20071;-66
2023/09/17 02:45:27;;;;;;;10.10;7.30;;;;;;;;;;1052846;28;20407;-67
2023/09/17 02:45:58;;;;;;;9.40;7.35;;;;;;;;;;1050345;28;20044;-66
2023/09/17 02:46:28;;;;;;;9.73;7.05;;;;;;;;;;1051938;28;20047;-66
2023/09/17 02:46:59;;;;;;;11.73;7.57;;;;;;;;;;1052758;28;20522;-65
2023/09/17 02:47:29;;;;;;;12.10;7.55;;;;;;;;;;1053288;28;20039;-65
2023/09/17 02:48:00;;;;;;;9.48;7.05;;;;;;;;;;1051779;28;20044;-65
2023/09/17 02:48:34;;;;;;;11.10;7.03;;;;;;;;;;1050645;28;20054;-65
2023/09/17 02:49:05;;;;;;;8.68;6.70;;;;;;;;;;1051927;28;20044;-66
2023/09/17 02:49:35;;;;;;;11.23;7.30;;;;;;;;;;1053735;28;20074;-66
2023/09/17 02:50:06;;;;;;;13.15;7.45;;;;;;;;;;1053982;28;20076;-65
2023/09/17 02:50:39;;;;;;;10.00;7.78;;;;;;;;;;1052970;28;20051;-66
2023/09/17 02:51:10;;;;;;;11.27;7.90;;;;;;;;;;1054061;28;20043;-65
2023/09/17 02:51:41;;;;;;;13.52;7.63;;;;;;;;;;1051267;28;20549;-65
2023/09/17 02:52:11;;;;;;;10.07;7.25;;;;;;;;;;1051538;28;20765;-66
2023/09/17 02:52:42;;;;;;;12.13;7.22;;;;;;;;;;1051682;28;20043;-66
2023/09/17 02:53:12;;;;;;;10.23;6.97;;;;;;;;;;1051120;28;20884;-65
2023/09/17 02:53:44;;;;;;;9.60;6.82;;;;;;;;;;1053346;28;20134;-66
2023/09/17 02:54:14;;;;;;;13.23;7.88;;;;;;;;;;1054914;28;20610;-65
2023/09/17 02:54:45;;;;;;;15.55;7.45;;;;;;;;;;1052969;28;20168;-66
2023/09/17 02:55:16;;;;;;;11.55;6.88;;;;;;;;;;1052350;28;20130;-64
2023/09/17 02:55:47;;;;;;;12.65;7.40;;;;;;;;;;1053774;28;20127;-66
2023/09/17 02:56:18;;;;;;;11.27;7.18;;;;;;;;;;1053507;28;20055;-65
2023/09/17 02:56:49;;;;;;;12.23;8.05;;;;;;;;;;1053519;28;20131;-65
2023/09/17 02:57:19;;;;;;;12.95;8.15;;;;;;;;;;1053220;28;20085;-65
2023/09/17 02:57:50;;;;;;;12.50;7.85;;;;;;;;;;1050394;28;20098;-64
2023/09/17 02:58:21;;;;;;;11.77;7.72;;;;;;;;;;1052415;28;20050;-65
2023/09/17 02:58:51;;;;;;;12.30;6.72;;;;;;;;;;1052885;28;20043;-65
2023/09/17 02:59:22;;;;;;;9.18;7.47;;;;;;;;;;1052870;28;20052;-66
2023/09/17 02:59:52;;;;;;;12.43;7.82;;;;;;;;;;1055894;27;20073;-65
2023/09/17 03:00:23;;;;;;;11.68;7.25;;;;;;;;;;1052006;28;20470;-66
2023/09/17 03:00:53;;;;;;;10.50;8.00;;;;;;;;;;1051043;28;20055;-65
2023/09/17 03:01:24;;;;;;;12.02;7.88;;;;;;;;;;1050963;28;20051;-66
2023/09/17 03:01:55;;;;;;;11.30;7.60;;;;;;;;;;1053125;28;23460;-66
2023/09/17 03:02:25;;;;;;;14.55;8.10;;;;;;;;;;1052087;28;20052;-65
2023/09/17 03:02:56;;;;;;;11.00;7.50;;;;;;;;;;1054203;28;20491;-65
2023/09/17 03:03:26;;;;;;;11.80;8.77;;;;;;;;;;1051115;28;20818;-65
2023/09/17 03:03:57;;;;;;;8.68;6.68;;;;;;;;;;1050939;28;20043;-66
2023/09/17 03:04:28;;;;;;;9.88;7.35;;;;;;;;;;1051438;28;20056;-64
2023/09/17 03:04:59;;;;;;;13.45;8.07;;;;;;;;;;1053263;28;20139;-64
2023/09/17 03:05:30;;;;;;;9.52;7.13;;;;;;;;;;1053346;28;20043;-66
2023/09/17 03:06:05;;;;;;;12.70;7.82;;;;;;;;;;1055398;28;20044;-65
2023/09/17 03:06:36;;;;;;;12.90;7.47;;;;;;;;;;1053091;28;20070;-65
2023/09/17 03:07:07;;;;;;;13.13;8.35;;;;;;;;;;1053978;28;20077;-65
2023/09/17 03:07:37;;;;;;;10.52;7.25;;;;;;;;;;1053913;28;20068;-66
2023/09/17 03:08:09;;;;;;;12.70;8.02;;;;;;;;;;1051890;28;20052;-66
2023/09/17 03:08:43;;;;;;;12.20;7.38;;;;;;;;;;1054043;28;20047;-66